Terminal Aerodrome Forecast
Issued by NWS

Home | Current Version | Previous Version | Text Only | Print | Product List | Glossary On
Versions: 1 2 3 4 5 6 7 8 9 10 11 12 13
000
FTUS45 KABQ 300539
TAFLVS
TAF
KLVS 300539Z 3006/3106 15008KT P6SM SKC
     FM301100 22007KT P6SM SKC
     FM302100 21012G20KT P6SM VCTS BKN080CB
     FM310000 22015G25KT P6SM VCSH BKN070
     FM310400 34007KT P6SM SCT150=

USA.gov is the U.S. government's official web portal to all federal, state and local government web resources and services.